createdAt,value
2018-09-03T00:02:36.353Z,9.87
2018-09-03T00:05:11.483Z,9.57
2018-09-03T00:07:58.636Z,11.73
2018-09-03T00:10:41.118Z,10.40
2018-09-03T00:13:32.565Z,9.60
2018-09-03T00:16:14.117Z,9.07
2018-09-03T00:18:47.870Z,12.57
2018-09-03T00:21:33.308Z,9.60
2018-09-03T00:24:02.934Z,12.63
2018-09-03T00:26:38.372Z,12.50
2018-09-03T00:29:06.731Z,13.47
2018-09-03T00:31:52.400Z,12.43
2018-09-03T00:38:41.946Z,11.40
2018-09-03T00:41:17.623Z,12.70
2018-09-03T00:44:01.113Z,13.13
2018-09-03T00:46:35.021Z,12.07
2018-09-03T00:49:03.683Z,12.30
2018-09-03T00:51:40.298Z,14.03
2018-09-03T00:54:13.301Z,13.10
2018-09-03T00:56:41.685Z,11.80
2018-09-03T00:59:10.049Z,12.27
2018-09-03T01:01:38.475Z,13.33
2018-09-03T01:04:24.903Z,13.30
2018-09-03T01:06:57.985Z,12.67
2018-09-03T01:09:30.999Z,11.50
2018-09-03T01:12:07.293Z,11.73
2018-09-03T01:14:35.663Z,12.50
2018-09-03T01:17:05.368Z,13.87
2018-09-03T01:19:33.997Z,11.93
2018-09-03T01:22:02.831Z,12.40
2018-09-03T01:24:31.363Z,12.00
2018-09-03T01:27:00.045Z,13.43
2018-09-03T01:29:29.644Z,13.90
2018-09-03T01:32:04.805Z,11.97
2018-09-03T01:34:51.918Z,11.57
2018-09-03T01:37:20.637Z,11.50
2018-09-03T01:39:49.279Z,12.23
2018-09-03T01:42:17.947Z,12.90
2018-09-03T01:44:47.593Z,15.07
2018-09-03T01:47:16.247Z,12.40
2018-09-03T01:49:45.857Z,13.43
2018-09-03T01:52:17.651Z,16.20
2018-09-03T01:54:59.812Z,13.03
2018-09-03T02:00:22.276Z,13.63
2018-09-03T02:02:50.779Z,13.57
2018-09-03T02:05:27.520Z,13.97
2018-09-03T02:08:00.414Z,12.90
2018-09-03T02:10:32.282Z,12.93
2018-09-03T02:13:06.374Z,13.50
2018-09-03T02:15:41.254Z,15.17
2018-09-03T02:18:09.666Z,11.30
2018-09-03T02:20:50.723Z,13.93
2018-09-03T02:23:20.186Z,15.10
2018-09-03T02:25:48.568Z,12.97
2018-09-03T02:28:29.246Z,12.47
2018-09-03T02:31:11.781Z,14.57
2018-09-03T02:33:45.676Z,14.63
2018-09-03T02:36:14.059Z,12.13
2018-09-03T02:38:42.445Z,12.70
2018-09-03T02:41:10.870Z,12.00
2018-09-03T02:43:39.493Z,11.50
2018-09-03T02:46:16.170Z,12.83
2018-09-03T02:48:48.571Z,15.40
2018-09-03T02:51:26.453Z,13.87
2018-09-03T02:53:54.870Z,14.67
2018-09-03T02:56:23.530Z,15.57
2018-09-03T02:58:56.234Z,15.13
2018-09-03T03:01:49.166Z,13.10
2018-09-03T03:04:20.938Z,13.37
2018-09-03T03:07:00.059Z,13.83
2018-09-03T03:09:43.180Z,13.53
2018-09-03T03:12:19.165Z,15.00
2018-09-03T03:15:08.537Z,15.67
2018-09-03T03:17:38.121Z,16.00
2018-09-03T03:20:11.787Z,14.60
2018-09-03T03:22:41.316Z,13.80
2018-09-03T03:25:17.714Z,14.77
2018-09-03T03:27:51.009Z,16.60
2018-09-03T03:30:21.754Z,15.00
2018-09-03T03:32:59.708Z,18.43
2018-09-03T03:35:30.301Z,15.07
2018-09-03T03:38:06.021Z,14.90
2018-09-03T03:43:47.497Z,15.37
2018-09-03T03:46:20.943Z,16.93
2018-09-03T03:49:07.717Z,13.63
2018-09-03T03:51:39.510Z,13.63
2018-09-03T03:54:08.216Z,14.60
2018-09-03T03:56:37.763Z,15.57
2018-09-03T03:59:08.310Z,14.47
2018-09-03T04:01:36.976Z,14.57
2018-09-03T04:04:05.452Z,15.53
2018-09-03T04:06:35.742Z,13.67
2018-09-03T04:09:05.550Z,14.80
2018-09-03T04:11:37.292Z,16.07
2018-09-03T04:14:11.800Z,20.23
2018-09-03T04:16:56.761Z,17.93
2018-09-03T04:19:32.267Z,17.00
2018-09-03T04:22:11.095Z,19.67
2018-09-03T04:24:45.598Z,18.47
2018-09-03T04:27:26.551Z,15.03
2018-09-03T04:30:18.323Z,16.83
2018-09-03T04:32:54.962Z,17.73
2018-09-03T04:35:27.676Z,16.93
2018-09-03T04:37:58.202Z,17.67
2018-09-03T04:40:32.406Z,16.97
2018-09-03T04:43:02.008Z,17.80
2018-09-03T04:45:33.801Z,18.13
2018-09-03T04:48:02.589Z,18.03
2018-09-03T04:50:40.652Z,14.23
2018-09-03T04:53:09.148Z,14.90
2018-09-03T04:55:37.781Z,15.87
2018-09-03T04:58:11.337Z,14.10
2018-09-03T05:00:42.785Z,20.47
2018-09-03T05:03:12.394Z,14.57
2018-09-03T05:05:43.038Z,14.50
2018-09-03T05:08:23.883Z,15.63
2018-09-03T05:10:52.327Z,18.83
2018-09-03T05:13:26.603Z,15.03
2018-09-03T05:15:56.131Z,15.50
2018-09-03T05:18:24.835Z,18.83
2018-09-03T05:20:54.549Z,18.50
2018-09-03T05:23:23.193Z,17.67
2018-09-03T05:25:52.731Z,18.00
2018-09-03T05:28:27.025Z,17.53
2018-09-03T05:31:02.111Z,20.80
2018-09-03T05:33:30.805Z,17.10
2018-09-03T05:35:59.600Z,19.67
2018-09-03T05:38:28.215Z,19.77
2018-09-03T05:40:57.045Z,18.07
2018-09-03T05:43:26.939Z,19.37
2018-09-03T05:45:59.800Z,19.67
2018-09-03T05:48:31.587Z,18.93
2018-09-03T05:51:20.225Z,18.03
2018-09-03T05:53:52.869Z,20.60
2018-09-03T05:56:22.449Z,17.97
2018-09-03T05:58:52.146Z,21.93
2018-09-03T06:01:22.686Z,18.03
2018-09-03T06:03:52.210Z,19.57
2018-09-03T06:06:26.772Z,18.77
2018-09-03T06:08:55.332Z,20.67
2018-09-03T06:11:24.958Z,19.90
2018-09-03T06:13:55.520Z,23.53
2018-09-03T06:16:24.772Z,22.23
2018-09-03T06:18:53.262Z,18.10
2018-09-03T06:21:21.862Z,19.97
2018-09-03T06:23:50.222Z,19.27
2018-09-03T06:26:19.870Z,20.47
2018-09-03T06:28:48.546Z,21.43
2018-09-03T06:31:16.930Z,21.77
2018-09-03T06:33:48.966Z,22.10
2018-09-03T06:36:18.604Z,18.47
2018-09-03T06:38:57.299Z,19.17
2018-09-03T06:41:30.432Z,22.90
2018-09-03T06:44:08.631Z,21.37
2018-09-03T06:46:42.911Z,18.27
2018-09-03T06:49:11.592Z,21.40
2018-09-03T06:51:40.256Z,21.50
2018-09-03T06:54:08.951Z,23.50
2018-09-03T06:56:38.527Z,23.17
2018-09-03T06:59:06.933Z,18.43
2018-09-03T07:01:35.662Z,21.30
2018-09-03T07:04:05.294Z,19.07
2018-09-03T07:06:33.741Z,20.17
2018-09-03T07:09:02.338Z,21.20
2018-09-03T07:11:31.892Z,20.97
2018-09-03T07:14:00.236Z,20.93
2018-09-03T07:16:28.682Z,19.10
2018-09-03T07:19:00.712Z,24.00
2018-09-03T07:21:32.436Z,20.93
2018-09-03T07:24:00.782Z,22.60
2018-09-03T07:26:31.487Z,21.67
2018-09-03T07:29:09.746Z,19.13
2018-09-03T07:31:38.337Z,20.00
2018-09-03T07:34:07.032Z,24.33
2018-09-03T07:36:35.420Z,19.77
2018-09-03T07:39:10.050Z,22.57
2018-09-03T07:41:42.015Z,21.90
2018-09-03T07:44:10.744Z,19.30
2018-09-03T07:46:39.072Z,21.37
2018-09-03T07:49:07.536Z,22.23
2018-09-03T07:51:36.083Z,20.83
2018-09-03T07:54:12.134Z,22.47
2018-09-03T07:56:40.800Z,25.27
2018-09-03T07:59:09.454Z,23.27
2018-09-03T08:01:40.056Z,23.37
2018-09-03T08:04:08.602Z,26.07
2018-09-03T08:06:36.992Z,24.13
2018-09-03T08:09:11.744Z,25.43
2018-09-03T08:11:47.148Z,21.60
2018-09-03T08:14:21.429Z,29.03
2018-09-03T08:16:49.963Z,25.43
2018-09-03T08:19:30.713Z,23.80
2018-09-03T08:22:05.093Z,29.23
2018-09-03T08:24:41.830Z,26.63
2018-09-03T08:27:12.355Z,26.57
2018-09-03T08:29:40.693Z,27.60
2018-09-03T08:32:10.064Z,26.20
2018-09-03T08:34:38.399Z,24.63
2018-09-03T08:37:08.922Z,24.83
2018-09-03T08:39:37.247Z,24.27
2018-09-03T08:42:17.655Z,23.90
2018-09-03T08:44:47.028Z,21.17
2018-09-03T08:47:22.827Z,26.00
2018-09-03T08:49:57.491Z,24.80
2018-09-03T08:52:35.227Z,25.27
2018-09-03T08:55:08.772Z,24.03
2018-09-03T08:57:43.934Z,24.00
2018-09-03T09:00:18.313Z,24.50
2018-09-03T09:03:06.679Z,22.47
2018-09-03T09:05:45.114Z,22.13
2018-09-03T09:08:14.745Z,22.27
2018-09-03T09:10:44.373Z,25.73
2018-09-03T09:13:19.334Z,23.97
2018-09-03T09:15:53.321Z,24.97
2018-09-03T09:18:23.911Z,22.90
2018-09-03T09:20:52.510Z,24.93
2018-09-03T09:23:23.946Z,23.73
2018-09-03T09:26:05.204Z,29.73
2018-09-03T09:28:37.934Z,24.67
2018-09-03T09:31:06.759Z,24.03
2018-09-03T09:33:41.149Z,23.37
2018-09-03T09:36:12.924Z,22.03
2018-09-03T09:38:42.497Z,21.67
2018-09-03T09:41:11.148Z,22.13
2018-09-03T09:43:44.422Z,24.30
2018-09-03T09:46:12.822Z,23.60
2018-09-03T09:48:42.428Z,24.00
2018-09-03T09:51:10.821Z,23.90
2018-09-03T09:53:41.346Z,23.03
2018-09-03T09:56:11.907Z,22.27
2018-09-03T09:58:44.250Z,20.60
2018-09-03T10:01:19.080Z,23.77
2018-09-03T10:03:55.762Z,24.00
2018-09-03T10:06:29.354Z,24.07
2018-09-03T10:09:04.062Z,23.67
2018-09-03T10:11:32.730Z,24.83
2018-09-03T10:14:02.615Z,23.13
2018-09-03T10:16:31.191Z,24.70
2018-09-03T10:19:00.896Z,24.23
2018-09-03T10:21:29.477Z,23.43
2018-09-03T10:23:57.868Z,26.87
2018-09-03T10:26:26.842Z,24.73
2018-09-03T10:28:55.320Z,29.40
2018-09-03T10:31:29.596Z,24.57
2018-09-03T10:33:58.206Z,24.93
2018-09-03T10:36:28.442Z,25.57
2018-09-03T10:38:57.072Z,25.90
2018-09-03T10:41:38.680Z,25.37
2018-09-03T10:44:15.027Z,27.50
2018-09-03T10:46:50.179Z,26.67
2018-09-03T10:49:20.738Z,29.33
2018-09-03T10:51:50.347Z,29.20
2018-09-03T10:54:21.037Z,27.43
2018-09-03T10:56:55.068Z,30.67
2018-09-03T10:59:24.805Z,28.17
2018-09-03T11:01:54.408Z,28.13
2018-09-03T11:04:25.162Z,27.40
2018-09-03T11:06:59.400Z,28.43
2018-09-03T11:09:28.096Z,30.40
2018-09-03T11:11:56.809Z,28.93
2018-09-03T11:14:27.316Z,31.07
2018-09-03T11:16:57.194Z,27.80
2018-09-03T11:19:34.118Z,29.13
2018-09-03T11:22:02.912Z,31.23
2018-09-03T11:24:33.354Z,30.63
2018-09-03T11:27:05.355Z,28.87
2018-09-03T11:29:43.937Z,27.63
2018-09-03T11:32:20.631Z,27.13
2018-09-03T11:34:52.618Z,28.13
2018-09-03T11:37:26.862Z,29.43
2018-09-03T11:40:03.626Z,26.27
2018-09-03T11:42:37.804Z,25.37
2018-09-03T11:45:06.543Z,23.17
2018-09-03T11:47:35.116Z,25.13
2018-09-03T11:50:05.704Z,24.43
2018-09-03T11:52:35.294Z,26.53
2018-09-03T11:55:05.620Z,22.83
2018-09-03T11:57:34.170Z,25.10
2018-09-03T12:00:09.723Z,24.87
2018-09-03T12:02:44.150Z,24.30
2018-09-03T12:05:18.073Z,25.27
2018-09-03T12:07:56.890Z,26.03
2018-09-03T12:10:25.333Z,25.33
2018-09-03T12:12:57.684Z,25.80
2018-09-03T12:15:35.610Z,29.93
2018-09-03T12:18:07.656Z,27.83
2018-09-03T12:20:39.686Z,32.27
2018-09-03T12:23:17.918Z,29.03
2018-09-03T12:25:46.612Z,24.07
2018-09-03T12:28:16.176Z,27.53
2018-09-03T12:30:44.557Z,25.20
2018-09-03T12:33:14.781Z,24.13
2018-09-03T12:35:51.325Z,22.93
2018-09-03T12:38:19.809Z,21.50
2018-09-03T12:40:49.479Z,26.80
2018-09-03T12:43:19.099Z,27.23
2018-09-03T12:45:56.296Z,18.70
2018-09-03T12:48:42.879Z,22.20
2018-09-03T12:51:14.712Z,19.67
2018-09-03T12:53:56.188Z,20.13
2018-09-03T12:59:21.555Z,17.87
2018-09-03T13:01:53.543Z,21.57
2018-09-03T13:04:27.576Z,19.27
2018-09-03T13:07:01.466Z,18.70
2018-09-03T13:09:30.106Z,19.57
2018-09-03T13:11:58.477Z,17.43
2018-09-03T13:14:28.082Z,19.50
2018-09-03T13:16:57.690Z,18.43
2018-09-03T13:19:26.146Z,17.67
2018-09-03T13:21:54.761Z,17.60
2018-09-03T13:24:23.136Z,18.70
2018-09-03T13:26:51.518Z,17.90
2018-09-03T13:29:22.054Z,20.20
2018-09-03T13:31:54.438Z,15.80
2018-09-03T13:34:24.033Z,15.67
2018-09-03T13:36:56.095Z,19.53
2018-09-03T13:39:26.628Z,15.17
2018-09-03T13:41:56.279Z,16.03
2018-09-03T13:44:34.109Z,19.13
2018-09-03T13:47:03.744Z,17.93
2018-09-03T13:49:32.098Z,19.90
2018-09-03T13:52:00.542Z,15.13
2018-09-03T13:54:49.519Z,14.70
2018-09-03T13:57:22.874Z,15.57
2018-09-03T14:00:01.294Z,16.23
2018-09-03T14:02:30.952Z,16.37
2018-09-03T14:05:02.744Z,15.70
2018-09-03T14:07:32.341Z,16.83
2018-09-03T14:10:08.745Z,19.57
2018-09-03T14:12:43.679Z,21.20
2018-09-03T14:15:13.785Z,20.07
2018-09-03T14:17:45.744Z,19.33
2018-09-03T14:20:21.844Z,20.30
2018-09-03T14:23:05.349Z,19.17
2018-09-03T14:25:35.801Z,29.17
2018-09-03T14:28:05.564Z,19.17
2018-09-03T14:30:34.083Z,20.83
2018-09-03T14:33:17.197Z,21.20
2018-09-03T14:35:45.602Z,17.53
2018-09-03T14:38:15.460Z,20.00
2018-09-03T14:40:43.902Z,17.60
2018-09-03T14:43:15.665Z,16.43
2018-09-03T14:45:45.306Z,19.13
2018-09-03T14:48:17.122Z,19.10
2018-09-03T14:50:47.589Z,23.40
2018-09-03T14:53:19.738Z,19.93
2018-09-03T14:55:53.836Z,23.83
2018-09-03T14:58:23.448Z,20.67
2018-09-03T15:00:54.034Z,19.13
2018-09-03T15:03:22.699Z,19.30
2018-09-03T15:05:52.293Z,19.83
2018-09-03T15:08:21.083Z,19.27
2018-09-03T15:10:49.724Z,15.73
2018-09-03T15:13:18.854Z,20.57
2018-09-03T15:15:48.254Z,17.27
2018-09-03T15:18:16.982Z,20.27
2018-09-03T15:20:45.698Z,18.30
2018-09-03T15:23:16.182Z,16.07
2018-09-03T15:25:48.905Z,16.90
2018-09-03T15:28:17.601Z,19.60
2018-09-03T15:30:46.314Z,18.20
2018-09-03T15:33:20.768Z,19.43
2018-09-03T15:35:50.532Z,19.87
2018-09-03T15:38:19.968Z,20.07
2018-09-03T15:40:51.784Z,18.43
2018-09-03T15:43:20.543Z,24.23
2018-09-03T15:45:59.870Z,21.57
2018-09-03T15:48:29.513Z,24.53
2018-09-03T15:51:01.930Z,21.83
2018-09-03T15:53:33.635Z,25.00
2018-09-03T15:56:03.202Z,23.07
2018-09-03T15:58:31.987Z,23.83
2018-09-03T16:01:00.945Z,21.03
2018-09-03T16:03:31.495Z,24.70
2018-09-03T16:06:00.118Z,22.13
2018-09-03T16:08:29.714Z,23.37
2018-09-03T16:10:59.690Z,26.27
2018-09-03T16:13:28.367Z,22.33
2018-09-03T16:15:57.969Z,22.17
2018-09-03T16:18:30.312Z,21.27
2018-09-03T16:20:59.954Z,22.10
2018-09-03T16:23:28.692Z,23.80
2018-09-03T16:25:57.338Z,25.93
2018-09-03T16:28:26.060Z,21.40
2018-09-03T16:30:54.749Z,22.40
2018-09-03T16:33:27.524Z,25.27
2018-09-03T16:35:58.300Z,21.93
2018-09-03T16:38:26.944Z,23.20
2018-09-03T16:40:57.402Z,22.97
2018-09-03T16:43:27.016Z,22.73
2018-09-03T16:45:55.699Z,24.77
2018-09-03T16:48:24.381Z,24.47
2018-09-03T16:50:53.117Z,22.27
2018-09-03T16:53:21.885Z,19.43
2018-09-03T16:55:50.470Z,19.17
2018-09-03T16:58:20.111Z,20.80
2018-09-03T17:00:49.792Z,19.00
2018-09-03T17:03:18.322Z,20.90
2018-09-03T17:05:48.044Z,19.93
2018-09-03T17:08:16.722Z,23.10
2018-09-03T17:10:47.164Z,18.13
2018-09-03T17:13:17.825Z,18.60
2018-09-03T17:15:46.386Z,20.60
2018-09-03T17:18:23.086Z,19.90
2018-09-03T17:20:56.994Z,22.13
2018-09-03T17:23:26.626Z,20.83
2018-09-03T17:25:55.296Z,19.90
2018-09-03T17:28:24.004Z,24.43
2018-09-03T17:30:52.666Z,22.47
2018-09-03T17:33:21.338Z,20.27
2018-09-03T17:35:50.041Z,20.00
2018-09-03T17:38:19.324Z,25.30
2018-09-03T17:40:58.119Z,24.77
2018-09-03T17:43:26.482Z,25.77
2018-09-03T17:46:04.764Z,21.50
2018-09-03T17:48:33.430Z,22.53
2018-09-03T17:51:02.125Z,23.63
2018-09-03T17:53:31.751Z,23.80
2018-09-03T17:56:00.273Z,22.37
2018-09-03T17:58:28.971Z,23.37
2018-09-03T18:00:57.578Z,23.77
2018-09-03T18:03:28.129Z,21.83
2018-09-03T18:05:57.661Z,23.67
2018-09-03T18:08:27.817Z,24.23
2018-09-03T18:10:57.216Z,23.43
2018-09-03T18:13:27.865Z,22.97
2018-09-03T18:15:56.369Z,23.33
2018-09-03T18:18:25.357Z,24.03
2018-09-03T18:20:55.864Z,24.20
2018-09-03T18:23:25.706Z,20.50
2018-09-03T18:25:54.148Z,26.77
2018-09-03T18:28:40.969Z,23.93
2018-09-03T18:31:12.827Z,23.97
2018-09-03T18:33:43.338Z,22.83
2018-09-03T18:36:12.101Z,24.17
2018-09-03T18:38:40.673Z,23.20
2018-09-03T18:41:09.340Z,23.33
2018-09-03T18:43:40.086Z,22.67
2018-09-03T18:46:14.365Z,23.10
2018-09-03T18:48:50.153Z,28.30
2018-09-03T18:51:25.971Z,25.23
2018-09-03T18:53:54.585Z,27.67
2018-09-03T18:56:23.610Z,25.17
2018-09-03T18:58:52.577Z,27.53
2018-09-03T19:01:21.610Z,23.17
2018-09-03T19:03:54.648Z,27.93
2018-09-03T19:06:24.263Z,26.00
2018-09-03T19:08:58.673Z,25.27
2018-09-03T19:11:27.130Z,28.73
2018-09-03T19:13:55.807Z,23.00
2018-09-03T19:16:26.380Z,25.20
2018-09-03T19:18:58.420Z,26.80
2018-09-03T19:21:34.376Z,26.60
2018-09-03T19:24:04.413Z,31.20
2018-09-03T19:26:33.104Z,30.50
2018-09-03T19:29:01.741Z,29.20
2018-09-03T19:31:31.636Z,29.50
2018-09-03T19:34:00.331Z,29.00
2018-09-03T19:36:29.032Z,28.87
2018-09-03T19:38:57.739Z,27.50
2018-09-03T19:41:26.481Z,36.43
2018-09-03T19:43:59.389Z,26.17
2018-09-03T19:46:28.118Z,30.10
2018-09-03T19:48:56.779Z,29.67
2018-09-03T19:51:47.884Z,31.73
2018-09-03T19:54:17.489Z,29.00
2018-09-03T19:56:51.722Z,28.23
2018-09-03T19:59:21.311Z,30.80
2018-09-03T20:01:49.993Z,31.03
2018-09-03T20:04:18.719Z,31.10
2018-09-03T20:06:47.387Z,31.73
2018-09-03T20:09:21.339Z,33.47
2018-09-03T20:11:50.149Z,34.63
2018-09-03T20:14:23.842Z,32.90
2018-09-03T20:16:56.603Z,38.73
2018-09-03T20:19:25.189Z,31.30
2018-09-03T20:21:57.940Z,37.13
2018-09-03T20:24:26.778Z,29.33
2018-09-03T20:26:58.744Z,33.63
2018-09-03T20:29:28.325Z,32.30
2018-09-03T20:31:56.979Z,33.20
2018-09-03T20:34:25.716Z,34.53
2018-09-03T20:36:55.286Z,34.47
2018-09-03T20:39:25.681Z,34.90
2018-09-03T20:41:54.195Z,37.47
2018-09-03T20:44:23.813Z,35.23
2018-09-03T20:46:52.547Z,33.77
2018-09-03T20:49:24.259Z,38.57
2018-09-03T20:51:52.916Z,37.67
2018-09-03T20:54:21.865Z,40.17
2018-09-03T20:56:57.925Z,39.23
2018-09-03T20:59:27.585Z,41.03
2018-09-03T21:02:00.056Z,41.83
2018-09-03T21:04:36.054Z,40.60
2018-09-03T21:07:12.674Z,45.10
2018-09-03T21:09:43.905Z,43.43
2018-09-03T21:12:14.365Z,40.97
2018-09-03T21:14:43.199Z,40.20
2018-09-03T21:17:11.834Z,42.47
2018-09-03T21:19:40.403Z,43.23
2018-09-03T21:22:09.112Z,43.60
2018-09-03T21:24:44.533Z,40.97
2018-09-03T21:27:16.955Z,42.53
2018-09-03T21:29:45.625Z,40.70
2018-09-03T21:32:18.743Z,44.03
2018-09-03T21:34:47.451Z,43.80
2018-09-03T21:37:15.981Z,45.30
2018-09-03T21:39:44.743Z,50.77
2018-09-03T21:42:14.369Z,45.10
2018-09-03T21:44:42.991Z,48.13
2018-09-03T21:47:12.603Z,48.80
2018-09-03T21:49:41.303Z,47.93
2018-09-03T21:52:10.875Z,45.23
2018-09-03T21:54:40.514Z,45.53
2018-09-03T21:57:10.123Z,46.83
2018-09-03T21:59:39.685Z,43.63
2018-09-03T22:02:15.246Z,42.70
2018-09-03T22:04:43.851Z,40.30
2018-09-03T22:07:12.683Z,40.87
2018-09-03T22:09:42.134Z,39.20
2018-09-03T22:12:10.897Z,41.17
2018-09-03T22:14:40.417Z,41.40
2018-09-03T22:17:09.271Z,42.27
2018-09-03T22:19:38.739Z,41.90
2018-09-03T22:22:08.413Z,43.13
2018-09-03T22:24:37.045Z,47.47
2018-09-03T22:27:05.756Z,47.13
2018-09-03T22:29:35.371Z,45.87
2018-09-03T22:32:05.169Z,42.67
2018-09-03T22:34:40.457Z,45.20
2018-09-03T22:37:12.803Z,45.10
2018-09-03T22:39:42.338Z,43.97
2018-09-03T22:42:26.397Z,46.73
2018-09-03T22:45:01.190Z,47.17
2018-09-03T22:47:37.898Z,53.00
2018-09-03T22:50:10.874Z,41.50
2018-09-03T22:52:40.473Z,46.57
2018-09-03T22:55:13.154Z,45.70
2018-09-03T22:57:43.693Z,50.90
2018-09-03T23:00:14.245Z,52.93
2018-09-03T23:02:47.372Z,53.73
2018-09-03T23:05:22.047Z,49.93
2018-09-03T23:07:50.798Z,49.43
2018-09-03T23:10:19.496Z,52.43
2018-09-03T23:12:48.179Z,52.83
2018-09-03T23:15:16.804Z,51.53
2018-09-03T23:17:45.490Z,58.87
2018-09-03T23:20:14.141Z,60.47
2018-09-03T23:22:42.806Z,59.07
2018-09-03T23:25:11.237Z,65.70
2018-09-03T23:27:41.745Z,69.13
2018-09-03T23:30:11.381Z,68.67
2018-09-03T23:32:41.869Z,70.57
2018-09-03T23:35:11.529Z,70.00
2018-09-03T23:37:49.433Z,70.57
2018-09-03T23:40:18.123Z,77.03
2018-09-03T23:42:47.686Z,73.23
2018-09-03T23:45:17.308Z,74.93
2018-09-03T23:47:46.969Z,81.53
2018-09-03T23:50:17.463Z,81.63
2018-09-03T23:52:50.477Z,77.23
2018-09-03T23:55:28.665Z,78.40
2018-09-03T23:57:57.355Z,82.43
